Time;durP1;ratioP1;P1;durP2;ratioP2;P2;SDS_P1;SDS_P2;PMS_P1;PMS_P2;Temp;Humidity;BMP_temperature;BMP_pressure;BME280_temperature;BME280_humidity;BME280_pressure;Samples;Min_cycle;Max_cycle;Signal;HPM_P1;HPM_P2
2022/01/20 00:00:13;;;;;;;7.78;1.05;;;;;9.70;102202.00;;;;5014491;28;20203;-83
2022/01/20 00:02:41;;;;;;;6.55;1.45;;;;;9.80;102200.00;;;;5020289;28;20204;-83
2022/01/20 00:05:24;;;;;;;7.30;1.08;;;;;9.80;102205.00;;;;5012084;28;20296;-83
2022/01/20 00:08:05;;;;;;;3.65;0.95;;;;;9.80;102207.00;;;;5011037;28;20193;-83
2022/01/20 00:27:07;;;;;;;2.88;0.77;;;;;9.90;102233.00;;;;5010639;28;20260;-82
2022/01/20 00:29:59;;;;;;;6.05;1.05;;;;;9.90;102233.00;;;;5015397;28;20221;-83
2022/01/20 00:32:26;;;;;;;2.78;0.63;;;;;9.90;102236.00;;;;5013745;28;20221;-82
2022/01/20 00:37:37;;;;;;;3.55;0.70;;;;;9.90;102220.00;;;;5018235;28;20259;-82
2022/01/20 00:40:06;;;;;;;4.20;0.70;;;;;9.90;102225.00;;;;5010939;28;20193;-83
2022/01/20 00:42:34;;;;;;;2.85;0.52;;;;;10.00;102215.00;;;;5016309;28;20686;-83
2022/01/20 00:45:02;;;;;;;3.00;0.75;;;;;10.00;102223.00;;;;5023983;28;20202;-83
2022/01/20 00:47:30;;;;;;;5.38;0.70;;;;;10.00;102209.00;;;;5022978;28;20211;-82
2022/01/20 00:49:57;;;;;;;4.65;0.68;;;;;10.00;102211.00;;;;5010512;28;20231;-82
2022/01/20 00:52:24;;;;;;;1.42;0.40;;;;;10.00;102218.00;;;;5011336;28;20201;-83
2022/01/20 00:54:51;;;;;;;5.20;0.73;;;;;10.10;102225.00;;;;5010274;28;20193;-82
2022/01/20 00:57:19;;;;;;;4.80;0.70;;;;;10.10;102240.00;;;;5015080;28;20200;-83
2022/01/20 00:59:47;;;;;;;2.08;0.43;;;;;10.10;102236.00;;;;5025329;28;20208;-83
2022/01/20 01:02:15;;;;;;;3.13;0.57;;;;;10.10;102243.00;;;;5010070;28;20197;-83
2022/01/20 01:04:42;;;;;;;5.15;0.57;;;;;10.10;102238.00;;;;5016463;28;20203;-83
2022/01/20 01:07:28;;;;;;;2.90;0.98;;;;;10.20;102237.00;;;;5017091;28;20205;-83
2022/01/20 01:09:56;;;;;;;4.95;0.85;;;;;10.20;102234.00;;;;5020654;28;20474;-83
2022/01/20 01:12:32;;;;;;;4.72;0.60;;;;;10.20;102234.00;;;;5010565;28;20201;-84
2022/01/20 01:15:02;;;;;;;3.30;0.60;;;;;10.20;102237.00;;;;5010829;28;20199;-84
2022/01/20 01:20:20;;;;;;;3.30;0.88;;;;;10.30;102237.00;;;;5021280;28;20721;-84
2022/01/20 01:22:48;;;;;;;3.05;0.52;;;;;10.30;102226.00;;;;5024160;28;20193;-84
2022/01/20 01:25:15;;;;;;;4.15;0.52;;;;;10.30;102227.00;;;;5024837;28;20690;-84
2022/01/20 01:27:44;;;;;;;4.97;0.90;;;;;10.30;102227.00;;;;5011266;28;20213;-85
2022/01/20 01:32:57;;;;;;;4.70;0.75;;;;;10.30;102218.00;;;;4996483;28;20232;-85
2022/01/20 01:35:27;;;;;;;4.35;0.85;;;;;10.30;102231.00;;;;5026291;28;20622;-85
2022/01/20 01:40:42;;;;;;;5.35;0.80;;;;;10.40;102229.00;;;;5011437;28;20208;-85
2022/01/20 01:43:17;;;;;;;4.50;0.70;;;;;10.40;102225.00;;;;5010656;28;20200;-85
2022/01/20 01:45:46;;;;;;;1.95;0.40;;;;;10.40;102218.00;;;;5011076;28;20196;-84
2022/01/20 01:48:13;;;;;;;2.70;0.65;;;;;10.40;102223.00;;;;5012697;28;20201;-85
2022/01/20 01:50:42;;;;;;;7.80;1.35;;;;;10.50;102224.00;;;;5016792;28;20204;-84
2022/01/20 01:53:09;;;;;;;5.15;0.75;;;;;10.50;102234.00;;;;5009915;28;20244;-85
2022/01/20 01:55:37;;;;;;;4.35;0.68;;;;;10.50;102246.00;;;;5012627;28;20201;-85
2022/01/20 01:58:04;;;;;;;3.92;0.70;;;;;10.50;102247.00;;;;5012207;28;20603;-86
2022/01/20 02:00:32;;;;;;;3.15;0.80;;;;;10.60;102258.00;;;;5009405;28;20204;-85
2022/01/20 02:03:01;;;;;;;6.70;0.95;;;;;10.60;102264.00;;;;5014826;28;20200;-85
2022/01/20 02:05:29;;;;;;;4.55;1.00;;;;;10.60;102271.00;;;;5013494;28;20196;-85
2022/01/20 02:08:23;;;;;;;3.92;0.88;;;;;10.60;102274.00;;;;5027397;28;20562;-85
2022/01/20 02:19:11;;;;;;;7.55;0.77;;;;;10.50;102263.00;;;;5024561;28;20254;-84
2022/01/20 02:21:49;;;;;;;2.97;0.70;;;;;10.50;102256.00;;;;5024271;28;20247;-84
2022/01/20 02:24:16;;;;;;;6.82;0.65;;;;;10.50;102261.00;;;;5029412;28;20581;-84
2022/01/20 02:26:43;;;;;;;7.55;0.70;;;;;10.60;102255.00;;;;5022241;28;20196;-85
2022/01/20 02:29:11;;;;;;;5.60;1.08;;;;;10.60;102246.00;;;;5024412;28;20223;-85
2022/01/20 02:31:40;;;;;;;6.85;0.77;;;;;10.60;102260.00;;;;5021169;28;20231;-84
2022/01/20 02:34:12;;;;;;;4.68;1.08;;;;;10.60;102250.00;;;;5012615;28;20256;-84
2022/01/20 02:36:42;;;;;;;3.90;0.57;;;;;10.70;102256.00;;;;5024258;28;20286;-84
2022/01/20 02:39:25;;;;;;;6.28;1.23;;;;;10.70;102255.00;;;;5032350;28;20193;-85
2022/01/20 02:44:51;;;;;;;4.57;0.93;;;;;10.70;102258.00;;;;5015448;28;20693;-84
2022/01/20 02:47:19;;;;;;;3.25;1.08;;;;;10.60;102236.00;;;;5020967;28;20215;-84
2022/01/20 02:49:47;;;;;;;3.67;0.88;;;;;10.60;102239.00;;;;5021113;28;20201;-84
2022/01/20 02:52:14;;;;;;;4.00;0.88;;;;;10.60;102239.00;;;;5013564;28;20220;-84
2022/01/20 02:54:43;;;;;;;7.45;1.05;;;;;10.60;102239.00;;;;5011979;28;20229;-84
2022/01/20 02:57:11;;;;;;;4.40;0.88;;;;;10.60;102241.00;;;;5014395;28;20219;-84
2022/01/20 02:59:39;;;;;;;5.85;0.98;;;;;10.60;102240.00;;;;5013922;28;20200;-83
2022/01/20 03:02:08;;;;;;;3.97;0.70;;;;;10.60;102236.00;;;;5027171;28;20185;-84
2022/01/20 03:04:35;;;;;;;5.55;0.57;;;;;10.60;102225.00;;;;5019445;28;20706;-84
2022/01/20 03:07:03;;;;;;;5.45;0.80;;;;;10.50;102227.00;;;;5025164;28;20638;-84
2022/01/20 03:09:31;;;;;;;1.95;0.47;;;;;10.50;102222.00;;;;5031503;28;20196;-83
2022/01/20 03:12:01;;;;;;;4.88;0.82;;;;;10.50;102218.00;;;;5025739;28;20201;-83
2022/01/20 03:14:28;;;;;;;3.20;0.45;;;;;10.50;102234.00;;;;5032017;28;20574;-84
2022/01/20 03:16:57;;;;;;;5.07;0.88;;;;;10.50;102233.00;;;;5016855;28;20220;-84
2022/01/20 03:19:24;;;;;;;3.38;1.33;;;;;10.50;102234.00;;;;5029503;28;20247;-83
2022/01/20 03:21:51;;;;;;;4.75;0.68;;;;;10.50;102244.00;;;;5022609;28;20204;-83
2022/01/20 03:24:18;;;;;;;7.03;1.00;;;;;10.50;102234.00;;;;5028057;28;20196;-84
2022/01/20 03:26:46;;;;;;;5.35;1.25;;;;;10.50;102233.00;;;;5012626;28;20584;-84
2022/01/20 03:29:14;;;;;;;2.25;0.52;;;;;10.50;102237.00;;;;5013414;28;20197;-84
2022/01/20 03:31:42;;;;;;;4.30;0.90;;;;;10.40;102239.00;;;;5016366;28;20839;-83
2022/01/20 03:34:09;;;;;;;2.88;0.40;;;;;10.40;102237.00;;;;5028609;28;20294;-84
2022/01/20 03:36:37;;;;;;;5.85;1.35;;;;;10.50;102233.00;;;;5013064;28;20197;-84
2022/01/20 03:39:05;;;;;;;3.35;0.93;;;;;10.40;102239.00;;;;5027194;28;20211;-84
2022/01/20 03:41:33;;;;;;;2.50;0.60;;;;;10.50;102248.00;;;;5021341;28;20697;-84
2022/01/20 03:44:00;;;;;;;2.35;0.50;;;;;10.50;102268.00;;;;5030290;28;20638;-84
2022/01/20 03:46:29;;;;;;;2.88;0.88;;;;;10.50;102278.00;;;;5029147;28;20196;-84
2022/01/20 03:49:07;;;;;;;5.00;1.05;;;;;10.50;102293.00;;;;5025320;28;20218;-84
2022/01/20 03:51:35;;;;;;;1.55;0.30;;;;;10.60;102289.00;;;;5012137;28;20239;-84
2022/01/20 03:54:04;;;;;;;0.98;0.30;;;;;10.60;102285.00;;;;5022704;28;20224;-84
2022/01/20 03:56:32;;;;;;;2.35;0.30;;;;;10.60;102279.00;;;;5029978;28;20239;-84
2022/01/20 03:59:00;;;;;;;2.03;0.30;;;;;10.60;102297.00;;;;5018971;28;20197;-84
2022/01/20 04:01:28;;;;;;;2.65;0.40;;;;;10.60;102295.00;;;;5013149;28;20216;-85
2022/01/20 04:03:55;;;;;;;1.20;0.20;;;;;10.60;102293.00;;;;5018756;28;20200;-83
2022/01/20 04:06:24;;;;;;;2.85;0.45;;;;;10.60;102286.00;;;;5028928;28;20200;-84
2022/01/20 04:08:52;;;;;;;3.10;0.30;;;;;10.60;102301.00;;;;5010654;28;20204;-84
2022/01/20 04:11:23;;;;;;;0.70;0.13;;;;;10.50;102299.00;;;;5021422;28;20573;-85
2022/01/20 04:13:51;;;;;;;1.25;0.40;;;;;10.60;102296.00;;;;5015938;28;20228;-84
2022/01/20 04:16:23;;;;;;;1.73;0.20;;;;;10.50;102302.00;;;;5022962;28;20692;-84
2022/01/20 04:18:56;;;;;;;0.85;0.30;;;;;10.50;102306.00;;;;5011540;28;20205;-84
2022/01/20 04:21:25;;;;;;;3.55;0.50;;;;;10.60;102301.00;;;;5029079;28;20220;-85
2022/01/20 04:23:53;;;;;;;1.33;0.32;;;;;10.50;102297.00;;;;5029100;28;20199;-84
2022/01/20 04:26:22;;;;;;;3.72;0.32;;;;;10.50;102296.00;;;;5029330;28;20203;-83
2022/01/20 04:28:53;;;;;;;1.50;0.40;;;;;10.50;102299.00;;;;5013600;28;20205;-84
2022/01/20 04:31:21;;;;;;;3.08;0.68;;;;;10.60;102301.00;;;;5010995;28;20197;-85
2022/01/20 04:33:48;;;;;;;0.38;0.10;;;;;10.60;102305.00;;;;5017086;28;20211;-85
2022/01/20 04:36:17;;;;;;;1.92;0.20;;;;;10.60;102314.00;;;;5030427;28;20758;-85
2022/01/20 04:38:45;;;;;;;3.72;0.25;;;;;10.60;102323.00;;;;5025917;28;20208;-85
2022/01/20 04:41:12;;;;;;;4.05;0.40;;;;;10.60;102330.00;;;;5028873;28;20196;-85
2022/01/20 04:43:39;;;;;;;3.03;0.40;;;;;10.70;102336.00;;;;5016142;28;20204;-85
2022/01/20 04:46:13;;;;;;;1.50;0.20;;;;;10.70;102332.00;;;;5026467;28;20558;-85
2022/01/20 04:49:05;;;;;;;3.20;0.38;;;;;10.70;102347.00;;;;5014155;28;20189;-85
2022/01/20 04:57:16;;;;;;;3.17;0.50;;;;;10.60;102350.00;;;;5014187;28;20227;-84
2022/01/20 04:59:44;;;;;;;2.65;0.40;;;;;10.70;102355.00;;;;5010284;28;20275;-85
2022/01/20 05:02:11;;;;;;;5.05;1.30;;;;;10.70;102358.00;;;;5019920;28;20212;-85
2022/01/20 05:04:39;;;;;;;3.35;0.70;;;;;10.70;102360.00;;;;5029802;28;20196;-84
2022/01/20 05:07:10;;;;;;;5.68;0.73;;;;;10.60;102369.00;;;;5023212;28;20752;-85
2022/01/20 05:09:38;;;;;;;8.45;1.00;;;;;10.60;102359.00;;;;5029389;28;20193;-84
2022/01/20 05:12:09;;;;;;;4.68;0.85;;;;;10.60;102364.00;;;;5028782;28;20188;-83
2022/01/20 05:14:36;;;;;;;3.42;0.63;;;;;10.60;102363.00;;;;5016063;28;20235;-83
2022/01/20 05:17:04;;;;;;;6.63;1.23;;;;;10.50;102364.00;;;;5014731;28;20227;-84
2022/01/20 05:19:33;;;;;;;6.90;0.93;;;;;10.50;102360.00;;;;5018893;28;20212;-84
2022/01/20 05:22:02;;;;;;;2.58;0.93;;;;;10.50;102367.00;;;;5013532;28;20196;-84
2022/01/20 05:24:30;;;;;;;7.43;1.23;;;;;10.50;102370.00;;;;5010306;28;20694;-84
2022/01/20 05:26:58;;;;;;;4.50;0.40;;;;;10.50;102372.00;;;;5010309;28;20578;-84
2022/01/20 05:29:26;;;;;;;4.45;0.85;;;;;10.40;102381.00;;;;5026896;28;20239;-85
2022/01/20 05:31:54;;;;;;;3.55;0.93;;;;;10.40;102382.00;;;;5011435;28;20216;-84
2022/01/20 05:34:21;;;;;;;2.05;0.93;;;;;10.40;102391.00;;;;5016106;28;20231;-85
2022/01/20 05:36:48;;;;;;;6.18;1.15;;;;;10.40;102403.00;;;;5027813;28;20756;-85
2022/01/20 05:39:16;;;;;;;7.57;1.05;;;;;10.40;102399.00;;;;5028425;28;20203;-85
2022/01/20 05:41:45;;;;;;;5.50;0.80;;;;;10.40;102404.00;;;;5011720;28;20212;-84
2022/01/20 05:44:13;;;;;;;5.45;0.73;;;;;10.40;102406.00;;;;5014246;28;20200;-84
2022/01/20 05:46:41;;;;;;;8.10;1.27;;;;;10.40;102407.00;;;;5026781;28;20211;-85
2022/01/20 05:49:10;;;;;;;6.72;1.73;;;;;10.30;102396.00;;;;5027149;28;20615;-85
2022/01/20 05:51:38;;;;;;;5.22;0.80;;;;;10.30;102402.00;;;;5022051;28;20220;-85
2022/01/20 05:54:07;;;;;;;7.38;1.13;;;;;10.30;102410.00;;;;5030480;28;20207;-83
2022/01/20 05:56:34;;;;;;;9.02;1.30;;;;;10.30;102416.00;;;;5028230;28;20197;-83
2022/01/20 05:59:03;;;;;;;6.10;0.82;;;;;10.20;102421.00;;;;5025556;28;20204;-84
2022/01/20 06:01:33;;;;;;;4.50;0.73;;;;;10.20;102440.00;;;;5023843;28;20196;-82
2022/01/20 06:04:00;;;;;;;8.13;1.83;;;;;10.20;102441.00;;;;5021763;28;20676;-83
2022/01/20 06:06:27;;;;;;;5.35;1.35;;;;;10.20;102447.00;;;;5027103;28;20753;-85
2022/01/20 06:08:55;;;;;;;5.18;1.05;;;;;10.20;102439.00;;;;5025111;28;20690;-85
2022/01/20 06:11:22;;;;;;;4.75;1.15;;;;;10.20;102446.00;;;;5027026;28;20193;-85
2022/01/20 06:13:50;;;;;;;6.63;1.60;;;;;10.20;102440.00;;;;5025609;28;20219;-84
2022/01/20 06:16:18;;;;;;;2.92;0.75;;;;;10.10;102445.00;;;;5023564;28;20235;-82
2022/01/20 06:18:45;;;;;;;3.70;1.00;;;;;10.10;102453.00;;;;5016184;28;20200;-82
2022/01/20 06:21:13;;;;;;;6.45;0.77;;;;;10.20;102459.00;;;;5024721;28;20729;-84
2022/01/20 06:23:41;;;;;;;5.90;0.98;;;;;10.10;102465.00;;;;5023220;28;20208;-83
2022/01/20 06:26:08;;;;;;;3.92;0.80;;;;;10.10;102463.00;;;;5020888;28;20240;-83
2022/01/20 06:28:38;;;;;;;4.80;0.93;;;;;10.10;102462.00;;;;5024359;28;20207;-84
2022/01/20 06:31:05;;;;;;;1.60;0.52;;;;;10.10;102458.00;;;;5022207;28;20568;-84
2022/01/20 06:33:34;;;;;;;5.32;0.98;;;;;10.10;102465.00;;;;5028084;28;20205;-85
2022/01/20 06:36:01;;;;;;;7.03;1.02;;;;;10.10;102464.00;;;;5029069;28;20591;-86
2022/01/20 06:38:29;;;;;;;3.88;0.90;;;;;10.10;102458.00;;;;5025788;28;20207;-85
2022/01/20 06:40:56;;;;;;;4.68;0.88;;;;;10.10;102468.00;;;;5024376;28;20193;-86
2022/01/20 06:43:23;;;;;;;3.90;0.77;;;;;10.10;102461.00;;;;5020261;28;20683;-84
2022/01/20 06:45:51;;;;;;;5.00;0.98;;;;;10.10;102461.00;;;;5025374;28;20192;-84
2022/01/20 06:48:18;;;;;;;5.28;1.00;;;;;10.10;102481.00;;;;5020181;28;20671;-84
2022/01/20 06:50:47;;;;;;;2.53;0.60;;;;;10.10;102491.00;;;;5027071;28;20222;-85
2022/01/20 06:53:14;;;;;;;3.00;0.80;;;;;10.10;102498.00;;;;5017439;28;20193;-85
2022/01/20 06:55:41;;;;;;;5.38;1.15;;;;;10.10;102505.00;;;;5017846;28;20217;-83
2022/01/20 06:58:09;;;;;;;4.35;1.10;;;;;10.10;102505.00;;;;5009836;28;20203;-83
2022/01/20 07:00:36;;;;;;;4.60;0.68;;;;;10.10;102520.00;;;;5016740;28;20201;-83
2022/01/20 07:03:03;;;;;;;8.20;0.80;;;;;10.10;102506.00;;;;5009426;28;20204;-83
2022/01/20 07:05:31;;;;;;;4.15;1.20;;;;;10.00;102514.00;;;;5009025;28;20208;-83
2022/01/20 07:07:59;;;;;;;4.63;0.75;;;;;10.00;102508.00;;;;5014215;28;20195;-83
2022/01/20 07:10:27;;;;;;;3.85;0.80;;;;;10.00;102504.00;;;;5028428;28;20192;-83
2022/01/20 07:12:54;;;;;;;2.67;0.93;;;;;10.00;102503.00;;;;5026591;28;20207;-83
2022/01/20 07:15:21;;;;;;;2.60;0.38;;;;;10.00;102507.00;;;;5028031;28;20223;-83
2022/01/20 07:17:49;;;;;;;2.78;0.52;;;;;10.00;102518.00;;;;5019165;28;20228;-84
2022/01/20 07:20:17;;;;;;;3.35;0.60;;;;;10.00;102517.00;;;;5019637;28;20231;-84
2022/01/20 07:22:44;;;;;;;2.38;0.70;;;;;10.00;102523.00;;;;5021804;28;20209;-83
2022/01/20 07:25:13;;;;;;;6.32;1.45;;;;;10.00;102523.00;;;;5016854;28;20225;-84
2022/01/20 07:27:40;;;;;;;4.50;0.70;;;;;10.00;102520.00;;;;5031358;28;20200;-83
2022/01/20 07:30:09;;;;;;;5.55;1.13;;;;;10.00;102526.00;;;;5029009;28;20204;-84
2022/01/20 07:32:38;;;;;;;1.80;0.65;;;;;10.00;102526.00;;;;5028869;28;20219;-83
2022/01/20 07:35:06;;;;;;;4.25;1.05;;;;;10.00;102527.00;;;;5020423;28;20246;-84
2022/01/20 07:37:33;;;;;;;1.77;0.28;;;;;10.10;102540.00;;;;5024665;28;20192;-83
2022/01/20 07:40:01;;;;;;;2.78;0.60;;;;;10.10;102537.00;;;;5016939;28;20200;-83
2022/01/20 07:42:29;;;;;;;3.88;0.60;;;;;10.10;102535.00;;;;5016309;28;20197;-83
2022/01/20 07:44:56;;;;;;;5.63;1.45;;;;;10.10;102542.00;;;;5013925;28;20197;-83
2022/01/20 07:47:24;;;;;;;3.10;0.98;;;;;10.10;102548.00;;;;5020706;28;20197;-83
2022/01/20 07:49:51;;;;;;;3.80;0.88;;;;;10.10;102551.00;;;;5011628;28;20212;-84
2022/01/20 07:52:18;;;;;;;3.25;0.55;;;;;10.10;102547.00;;;;5013269;28;20205;-83
2022/01/20 07:54:45;;;;;;;2.72;0.60;;;;;10.20;102555.00;;;;5016504;28;20211;-82
2022/01/20 07:57:13;;;;;;;6.78;0.90;;;;;10.20;102560.00;;;;5024340;28;20201;-83
2022/01/20 07:59:42;;;;;;;3.55;0.75;;;;;10.10;102558.00;;;;5015117;28;20208;-83
2022/01/20 08:02:10;;;;;;;1.83;0.40;;;;;10.20;102565.00;;;;5018471;28;20251;-83
2022/01/20 08:04:37;;;;;;;3.53;0.68;;;;;10.20;102569.00;;;;5011374;28;20201;-82
2022/01/20 08:07:04;;;;;;;3.97;1.00;;;;;10.10;102564.00;;;;5012545;28;20200;-82
2022/01/20 08:09:32;;;;;;;5.63;1.17;;;;;10.20;102567.00;;;;5019818;28;20593;-82
2022/01/20 08:11:59;;;;;;;4.97;1.48;;;;;10.10;102573.00;;;;5030863;28;20204;-82
2022/01/20 08:14:28;;;;;;;3.80;0.75;;;;;10.20;102585.00;;;;5029667;28;20314;-84
2022/01/20 08:16:56;;;;;;;7.55;0.70;;;;;10.10;102581.00;;;;5011524;28;20260;-83
2022/01/20 08:19:23;;;;;;;5.07;0.88;;;;;10.10;102586.00;;;;5016779;28;20199;-83
2022/01/20 08:21:51;;;;;;;3.72;0.52;;;;;10.20;102584.00;;;;4990596;28;20583;-83
2022/01/20 08:24:18;;;;;;;4.88;0.85;;;;;10.20;102583.00;;;;4980731;28;20202;-83
2022/01/20 08:26:45;;;;;;;2.42;0.63;;;;;10.10;102580.00;;;;4981931;28;20202;-84
2022/01/20 08:29:13;;;;;;;4.18;1.23;;;;;10.10;102582.00;;;;4975306;28;20588;-83
2022/01/20 08:31:40;;;;;;;1.30;0.55;;;;;10.10;102595.00;;;;4987124;28;20205;-83
2022/01/20 08:34:08;;;;;;;3.67;0.88;;;;;10.10;102588.00;;;;4979001;28;20213;-83
2022/01/20 08:36:36;;;;;;;11.30;1.13;;;;;10.20;102600.00;;;;4982508;28;20217;-83
2022/01/20 08:39:13;;;;;;;2.83;0.75;;;;;10.20;102606.00;;;;4975482;28;20206;-84
2022/01/20 08:41:44;;;;;;;3.63;0.73;;;;;10.20;102605.00;;;;4987482;28;20193;-83
2022/01/20 08:44:11;;;;;;;3.00;0.85;;;;;10.20;102610.00;;;;4974953;28;20214;-84
2022/01/20 08:46:41;;;;;;;3.72;0.55;;;;;10.20;102613.00;;;;4977912;28;20206;-83
2022/01/20 08:49:10;;;;;;;4.13;1.00;;;;;10.20;102609.00;;;;4973111;28;20628;-81
2022/01/20 08:51:37;;;;;;;2.97;0.80;;;;;10.20;102615.00;;;;4982620;28;20206;-83
2022/01/20 08:54:05;;;;;;;2.47;1.00;;;;;10.20;102609.00;;;;4980758;28;20202;-82
2022/01/20 08:56:34;;;;;;;4.82;0.75;;;;;10.20;102617.00;;;;4977562;28;20740;-82
2022/01/20 08:59:01;;;;;;;8.23;1.30;;;;;10.10;102607.00;;;;4971661;28;21008;-81
2022/01/20 09:01:28;;;;;;;4.85;0.70;;;;;10.10;102609.00;;;;4973488;28;20568;-81
2022/01/20 09:03:56;;;;;;;4.65;1.02;;;;;10.00;102616.00;;;;4976012;28;20198;-82
2022/01/20 09:06:25;;;;;;;4.05;0.98;;;;;10.00;102616.00;;;;4975733;28;20288;-81
2022/01/20 09:08:52;;;;;;;3.22;0.50;;;;;10.00;102627.00;;;;4971415;28;20218;-82
2022/01/20 09:11:22;;;;;;;6.97;1.02;;;;;10.00;102620.00;;;;4974350;28;20214;-80
2022/01/20 09:16:37;;;;;;;2.72;0.68;;;;;10.00;102635.00;;;;4981966;28;20376;-82
2022/01/20 09:19:05;;;;;;;3.33;1.00;;;;;10.00;102639.00;;;;4970938;28;20206;-82
2022/01/20 09:21:34;;;;;;;3.47;0.60;;;;;10.00;102638.00;;;;5006352;28;20229;-82
2022/01/20 09:24:01;;;;;;;7.97;1.00;;;;;10.00;102654.00;;;;5018304;28;20199;-83
2022/01/20 09:26:28;;;;;;;4.82;0.55;;;;;10.00;102656.00;;;;5026440;28;20204;-84
2022/01/20 09:28:56;;;;;;;7.57;0.98;;;;;10.00;102657.00;;;;5024078;28;20196;-83
2022/01/20 09:31:25;;;;;;;6.45;0.93;;;;;10.00;102653.00;;;;5017379;28;20204;-83
2022/01/20 09:33:52;;;;;;;3.83;0.60;;;;;10.00;102654.00;;;;5020784;28;20199;-86
2022/01/20 09:36:21;;;;;;;6.22;2.17;;;;;10.10;102657.00;;;;5023257;28;20238;-85
2022/01/20 09:38:50;;;;;;;9.07;0.98;;;;;10.10;102655.00;;;;5018496;28;20705;-85
2022/01/20 09:41:17;;;;;;;3.42;0.70;;;;;10.10;102650.00;;;;5027405;28;20215;-85
2022/01/20 09:43:45;;;;;;;6.00;1.00;;;;;10.10;102654.00;;;;5016955;28;20571;-85
2022/01/20 09:46:12;;;;;;;4.82;0.82;;;;;10.10;102650.00;;;;5025824;28;20667;-84
2022/01/20 09:48:39;;;;;;;3.13;0.63;;;;;10.20;102663.00;;;;5020083;28;20200;-83
2022/01/20 09:51:11;;;;;;;3.30;1.25;;;;;10.20;102673.00;;;;5017480;28;20675;-84
2022/01/20 09:53:38;;;;;;;5.75;1.05;;;;;10.20;102669.00;;;;5028810;28;20283;-85
2022/01/20 09:56:07;;;;;;;3.33;0.77;;;;;10.30;102674.00;;;;5021033;28;20216;-84
2022/01/20 09:58:36;;;;;;;5.28;1.00;;;;;10.40;102680.00;;;;5026005;28;20742;-85
2022/01/20 10:01:03;;;;;;;2.95;0.88;;;;;10.40;102685.00;;;;5023693;28;20279;-86
2022/01/20 10:03:31;;;;;;;3.67;0.75;;;;;10.50;102686.00;;;;5015399;28;20197;-87
2022/01/20 10:06:00;;;;;;;4.93;0.68;;;;;10.50;102690.00;;;;5026754;28;20604;-86
2022/01/20 10:08:29;;;;;;;6.45;1.38;;;;;10.50;102690.00;;;;5012767;28;20586;-86
2022/01/20 10:10:59;;;;;;;5.32;0.85;;;;;10.60;102704.00;;;;5022895;28;20202;-86
2022/01/20 10:13:31;;;;;;;4.85;0.70;;;;;10.60;102717.00;;;;5010964;28;20188;-86
2022/01/20 10:16:01;;;;;;;4.43;0.70;;;;;10.60;102729.00;;;;5011787;28;20224;-85
2022/01/20 10:18:30;;;;;;;3.00;0.88;;;;;10.70;102729.00;;;;5021000;28;20196;-87
2022/01/20 10:20:59;;;;;;;2.10;0.57;;;;;10.70;102722.00;;;;5026778;28;20228;-86
2022/01/20 10:23:36;;;;;;;4.60;0.88;;;;;10.70;102733.00;;;;5027809;28;20718;-84
2022/01/20 10:26:06;;;;;;;3.40;0.60;;;;;10.70;102725.00;;;;5022208;28;20573;-86
2022/01/20 10:28:47;;;;;;;2.97;0.73;;;;;10.60;102730.00;;;;5022413;28;20288;-85
2022/01/20 10:31:16;;;;;;;6.95;0.65;;;;;10.70;102740.00;;;;5028489;28;20203;-86
2022/01/20 10:33:45;;;;;;;2.90;0.80;;;;;10.80;102739.00;;;;5017691;28;20225;-85
2022/01/20 10:36:14;;;;;;;4.70;0.77;;;;;10.80;102748.00;;;;5021126;28;20228;-85
2022/01/20 10:38:50;;;;;;;5.78;1.05;;;;;10.80;102752.00;;;;5018517;28;20228;-85
2022/01/20 10:41:28;;;;;;;2.85;0.70;;;;;10.80;102754.00;;;;5024421;28;20211;-85
2022/01/20 10:44:04;;;;;;;5.45;0.75;;;;;10.90;102752.00;;;;5018061;28;20192;-83
2022/01/20 10:46:47;;;;;;;4.90;0.85;;;;;10.90;102760.00;;;;5023887;28;20195;-85
2022/01/20 10:49:14;;;;;;;3.83;0.60;;;;;11.00;102766.00;;;;5028943;28;20200;-83
2022/01/20 10:51:43;;;;;;;3.20;0.82;;;;;10.90;102760.00;;;;5012766;28;20201;-84
2022/01/20 10:54:14;;;;;;;10.02;1.30;;;;;10.90;102759.00;;;;5027429;28;20211;-83
2022/01/20 10:56:53;;;;;;;2.65;0.60;;;;;10.90;102762.00;;;;5023994;28;20227;-81
2022/01/20 10:59:23;;;;;;;3.72;0.55;;;;;11.00;102760.00;;;;5021771;28;20204;-82
2022/01/20 11:02:02;;;;;;;5.10;1.10;;;;;11.00;102769.00;;;;5012259;28;20643;-81
2022/01/20 11:04:30;;;;;;;2.67;0.70;;;;;11.10;102759.00;;;;5012249;28;20585;-82
2022/01/20 11:07:01;;;;;;;4.80;0.70;;;;;11.10;102759.00;;;;5010676;28;20212;-82
2022/01/20 11:09:31;;;;;;;4.88;1.38;;;;;11.20;102750.00;;;;5012516;28;20208;-82
2022/01/20 11:11:59;;;;;;;6.90;0.82;;;;;11.20;102757.00;;;;5013477;28;20205;-84
2022/01/20 11:14:27;;;;;;;3.40;0.98;;;;;11.30;102743.00;;;;5027706;28;20291;-82
2022/01/20 11:16:55;;;;;;;3.45;0.75;;;;;11.30;102742.00;;;;5017514;28;20230;-83
2022/01/20 11:19:23;;;;;;;1.65;0.60;;;;;11.30;102740.00;;;;5027669;28;20681;-82
2022/01/20 11:21:51;;;;;;;3.67;0.43;;;;;11.30;102733.00;;;;5024621;28;20217;-83
2022/01/20 11:24:20;;;;;;;1.65;0.30;;;;;11.30;102730.00;;;;5026158;28;20658;-82
2022/01/20 11:26:53;;;;;;;7.07;0.60;;;;;11.30;102735.00;;;;5022052;28;20200;-83
2022/01/20 11:29:21;;;;;;;2.13;0.45;;;;;11.40;102731.00;;;;5022517;28;20208;-82
2022/01/20 11:31:51;;;;;;;4.97;0.47;;;;;11.40;102714.00;;;;5025988;28;20232;-81
2022/01/20 11:34:21;;;;;;;3.10;0.68;;;;;11.30;102709.00;;;;5022958;28;20554;-82
2022/01/20 11:36:49;;;;;;;2.10;0.70;;;;;11.40;102718.00;;;;5013404;28;20231;-82
2022/01/20 11:39:20;;;;;;;3.28;0.57;;;;;11.40;102715.00;;;;5027552;28;20197;-82
2022/01/20 11:41:49;;;;;;;4.35;0.93;;;;;11.40;102712.00;;;;5020846;28;20275;-81
2022/01/20 11:44:19;;;;;;;1.80;0.38;;;;;11.40;102722.00;;;;5015151;28;20228;-81
2022/01/20 11:46:50;;;;;;;5.47;0.98;;;;;11.40;102727.00;;;;5019521;28;20204;-82
2022/01/20 11:49:20;;;;;;;1.48;0.55;;;;;11.40;102710.00;;;;5027801;28;20197;-82
2022/01/20 11:51:50;;;;;;;1.77;0.80;;;;;11.40;102716.00;;;;5018233;28;20197;-82
2022/01/20 11:54:29;;;;;;;2.80;0.50;;;;;11.50;102717.00;;;;5021713;28;20630;-82
2022/01/20 11:57:09;;;;;;;1.75;0.32;;;;;11.40;102717.00;;;;5011567;28;20919;-81
2022/01/20 11:59:38;;;;;;;2.40;0.63;;;;;11.50;102714.00;;;;5011681;28;20193;-81
2022/01/20 12:02:07;;;;;;;3.00;0.40;;;;;11.60;102713.00;;;;5023074;28;20207;-82
2022/01/20 12:04:35;;;;;;;3.63;0.77;;;;;11.60;102719.00;;;;5015959;28;20555;-82
2022/01/20 12:07:04;;;;;;;2.97;0.55;;;;;11.60;102704.00;;;;5017798;28;20205;-82
2022/01/20 12:09:35;;;;;;;2.70;0.52;;;;;11.70;102708.00;;;;5016396;28;20221;-81
2022/01/20 12:12:03;;;;;;;3.83;1.13;;;;;11.70;102705.00;;;;5019869;28;20196;-82
2022/01/20 12:14:36;;;;;;;6.22;1.05;;;;;11.70;102698.00;;;;5030016;28;20207;-82
2022/01/20 12:17:11;;;;;;;5.13;0.80;;;;;11.70;102699.00;;;;5019304;28;20730;-82
2022/01/20 12:19:38;;;;;;;4.15;0.52;;;;;11.70;102701.00;;;;5020180;28;20196;-82
2022/01/20 12:22:07;;;;;;;2.33;0.60;;;;;11.70;102717.00;;;;5024459;28;20196;-82
2022/01/20 12:24:36;;;;;;;3.55;0.60;;;;;11.70;102727.00;;;;5025986;28;20279;-81
2022/01/20 12:27:16;;;;;;;3.35;0.57;;;;;11.60;102723.00;;;;5019991;28;20189;-81
2022/01/20 12:29:43;;;;;;;3.90;0.65;;;;;11.60;102732.00;;;;5021429;28;20728;-81
2022/01/20 12:32:14;;;;;;;4.85;0.60;;;;;11.40;102730.00;;;;5028095;28;20197;-81
2022/01/20 12:34:42;;;;;;;1.80;0.73;;;;;11.30;102728.00;;;;5027087;28;20197;-80
2022/01/20 12:37:13;;;;;;;3.60;0.35;;;;;11.20;102733.00;;;;5011388;28;20232;-81
2022/01/20 12:39:41;;;;;;;2.13;0.63;;;;;11.10;102740.00;;;;5010285;28;20197;-81
2022/01/20 12:42:12;;;;;;;2.00;0.35;;;;;11.00;102717.00;;;;5014948;28;20196;-82
2022/01/20 12:44:47;;;;;;;2.78;0.30;;;;;10.90;102717.00;;;;5013541;28;20216;-82
2022/01/20 12:47:17;;;;;;;3.17;1.10;;;;;10.80;102718.00;;;;5021405;28;20625;-82
2022/01/20 12:49:44;;;;;;;0.35;0.15;;;;;10.70;102725.00;;;;5026153;28;20558;-81
2022/01/20 12:52:12;;;;;;;3.03;0.77;;;;;10.70;102728.00;;;;5027007;28;20200;-83
2022/01/20 12:54:39;;;;;;;0.85;0.40;;;;;10.70;102731.00;;;;5030103;28;20196;-83
2022/01/20 12:57:09;;;;;;;1.65;0.55;;;;;10.70;102728.00;;;;5019136;28;20228;-82
2022/01/20 12:59:39;;;;;;;1.95;0.60;;;;;10.80;102730.00;;;;5014315;28;20193;-82
2022/01/20 13:02:08;;;;;;;3.72;0.70;;;;;10.80;102727.00;;;;5012948;28;20205;-81
2022/01/20 13:04:38;;;;;;;2.90;0.40;;;;;10.80;102722.00;;;;5027879;28;20196;-82